Time;durP1;ratioP1;P1;durP2;ratioP2;P2;SDS_P1;SDS_P2;PMS_P1;PMS_P2;Temp;Humidity;BMP_temperature;BMP_pressure;BME280_temperature;BME280_humidity;BME280_pressure;Samples;Min_cycle;Max_cycle;Signal;HPM_P1;HPM_P2
2023/09/22 00:00:19;;;;;;;4.53;2.40;;;;;;;17.50;70.61;99242.13;682481;29;1197;-92
2023/09/22 00:00:41;;;;;;;3.53;2.10;;;;;;;17.45;70.45;99236.13;683009;29;1337;-92
2023/09/22 00:01:02;;;;;;;3.90;2.13;;;;;;;17.48;70.56;99241.31;677702;29;1345;-94
2023/09/22 00:01:23;;;;;;;4.40;2.20;;;;;;;17.51;70.39;99242.09;683066;28;1340;-93
2023/09/22 00:01:43;;;;;;;4.10;2.42;;;;;;;17.42;70.52;99234.41;685004;28;1357;-94
2023/09/22 00:02:04;;;;;;;4.50;2.33;;;;;;;17.46;70.64;99243.13;682643;28;1300;-92
2023/09/22 00:02:25;;;;;;;4.10;2.27;;;;;;;17.44;70.52;99247.56;682142;29;1228;-94
2023/09/22 00:02:47;;;;;;;3.80;1.95;;;;;;;17.48;70.60;99250.09;682911;29;1357;-92
2023/09/22 00:03:08;;;;;;;3.00;2.00;;;;;;;17.44;70.65;99248.41;682804;29;1091;-92
2023/09/22 00:03:29;;;;;;;3.10;2.10;;;;;;;17.43;70.74;99241.41;680550;29;1229;-94
2023/09/22 00:03:51;;;;;;;3.00;2.20;;;;;;;17.38;70.63;99238.03;688201;28;1287;-92
2023/09/22 00:04:11;;;;;;;3.45;2.30;;;;;;;17.44;70.54;99244.94;685638;28;1258;-93
2023/09/22 00:04:32;;;;;;;3.20;2.30;;;;;;;17.51;70.67;99259.66;685444;28;1355;-91
2023/09/22 00:04:53;;;;;;;5.30;2.25;;;;;;;17.48;70.64;99254.47;684747;28;1201;-93
2023/09/22 00:05:14;;;;;;;5.28;2.00;;;;;;;17.49;70.71;99245.66;683001;28;1386;-93
2023/09/22 00:05:37;;;;;;;5.30;2.00;;;;;;;17.48;70.83;99247.44;688397;28;1578;-93
2023/09/22 00:05:58;;;;;;;3.40;2.00;;;;;;;17.47;70.63;99243.09;682851;28;1375;-93
2023/09/22 00:06:22;;;;;;;2.95;2.10;;;;;;;17.58;70.65;99249.84;682935;28;1148;-93
2023/09/22 00:06:43;;;;;;;3.00;2.13;;;;;;;17.60;70.64;99261.22;685185;28;1347;-93
2023/09/22 00:07:03;;;;;;;2.60;2.00;;;;;;;17.59;70.71;99254.22;682872;28;1238;-91
2023/09/22 00:07:24;;;;;;;2.40;1.90;;;;;;;17.58;70.60;99252.50;685083;28;1229;-91
2023/09/22 00:07:45;;;;;;;3.15;2.15;;;;;;;17.62;70.78;99254.13;682859;29;1250;-93
2023/09/22 00:08:07;;;;;;;5.78;2.50;;;;;;;17.57;70.69;99246.34;680108;29;1369;-92
2023/09/22 00:08:28;;;;;;;5.60;2.50;;;;;;;17.58;70.55;99249.84;682950;28;1296;-93
2023/09/22 00:08:48;;;;;;;3.95;2.17;;;;;;;17.60;70.71;99248.03;677636;29;1236;-93
2023/09/22 00:09:09;;;;;;;2.90;2.10;;;;;;;17.62;70.58;99249.72;680315;29;1228;-91
2023/09/22 00:09:30;;;;;;;3.08;2.20;;;;;;;17.64;70.74;99261.09;682156;28;1255;-90
2023/09/22 00:09:50;;;;;;;2.80;2.17;;;;;;;17.64;70.65;99249.69;680052;29;1220;-91
2023/09/22 00:10:14;;;;;;;2.50;1.97;;;;;;;17.65;70.75;99257.56;683024;28;1385;-92
2023/09/22 00:10:34;;;;;;;2.10;1.70;;;;;;;17.67;70.56;99258.41;683086;29;1236;-91
2023/09/22 00:10:55;;;;;;;2.13;1.70;;;;;;;17.68;70.58;99249.59;679427;29;1239;-91
2023/09/22 00:11:17;;;;;;;1.93;1.70;;;;;;;17.66;70.40;99248.72;680149;29;1260;-94
2023/09/22 00:11:38;;;;;;;3.17;1.80;;;;;;;17.64;70.48;99249.69;683055;29;1353;-91
2023/09/22 00:11:59;;;;;;;3.80;1.70;;;;;;;17.66;70.57;99254.00;682798;28;1265;-93
2023/09/22 00:12:20;;;;;;;5.40;1.80;;;;;;;17.67;70.63;99249.59;679866;29;1422;-93
2023/09/22 00:12:41;;;;;;;5.28;2.15;;;;;;;17.71;70.65;99251.28;677424;29;1404;-94
2023/09/22 00:13:04;;;;;;;6.18;2.70;;;;;;;17.73;70.52;99265.28;678312;29;1153;-93
2023/09/22 00:13:24;;;;;;;6.28;2.47;;;;;;;17.65;70.51;99246.16;682832;28;1386;-92
2023/09/22 00:13:45;;;;;;;5.50;2.13;;;;;;;17.72;70.44;99258.28;682794;29;1261;-93
2023/09/22 00:14:07;;;;;;;3.67;1.90;;;;;;;17.63;70.50;99243.53;677599;29;1406;-90
2023/09/22 00:14:28;;;;;;;2.83;1.90;;;;;;;17.70;70.33;99265.34;677910;29;1282;-90
2023/09/22 00:14:49;;;;;;;2.80;2.00;;;;;;;17.67;70.37;99254.88;684866;28;1209;-91
2023/09/22 00:15:10;;;;;;;3.13;2.20;;;;;;;17.67;70.36;99250.50;680048;29;1330;-92
2023/09/22 00:15:33;;;;;;;3.38;2.20;;;;;;;17.71;70.48;99253.91;683023;28;1180;-91
2023/09/22 00:15:54;;;;;;;5.22;2.35;;;;;;;17.70;70.31;99261.84;684859;28;1359;-92
2023/09/22 00:16:15;;;;;;;8.65;2.17;;;;;;;17.76;70.38;99264.34;680318;29;1233;-93
2023/09/22 00:16:36;;;;;;;8.55;2.20;;;;;;;17.76;70.33;99265.19;683070;29;1384;-93
2023/09/22 00:16:57;;;;;;;5.40;2.00;;;;;;;17.66;70.42;99250.53;682903;28;1369;-93
2023/09/22 00:17:19;;;;;;;2.50;1.90;;;;;;;17.75;70.50;99257.31;682977;29;1322;-93
2023/09/22 00:17:46;;;;;;;2.50;1.90;;;;;;;17.67;70.38;99258.41;683101;29;1332;-92
2023/09/22 00:18:07;;;;;;;2.90;2.00;;;;;;;17.74;70.11;99260.84;688289;28;1206;-94
2023/09/22 00:18:28;;;;;;;2.83;1.90;;;;;;;17.68;70.15;99253.97;679853;29;1404;-93
2023/09/22 00:18:52;;;;;;;2.63;1.80;;;;;;;17.68;70.25;99256.63;674980;29;1164;-93
2023/09/22 00:19:15;;;;;;;2.00;1.70;;;;;;;17.68;70.36;99251.34;680090;29;1918;-93
2023/09/22 00:19:36;;;;;;;2.10;1.80;;;;;;;17.64;70.28;99245.28;685530;28;1221;-94
2023/09/22 00:19:57;;;;;;;2.30;2.10;;;;;;;17.69;70.19;99258.34;682698;28;1340;-94
2023/09/22 00:20:20;;;;;;;2.83;2.10;;;;;;;17.72;70.25;99258.28;677692;29;1327;-93
2023/09/22 00:20:41;;;;;;;3.08;1.95;;;;;;;17.64;70.22;99244.44;683133;29;1137;-90
2023/09/22 00:21:04;;;;;;;3.20;1.90;;;;;;;17.70;70.14;99267.97;684909;28;1119;-92
2023/09/22 00:21:25;;;;;;;3.38;2.08;;;;;;;17.65;70.15;99254.06;685751;28;1253;-93
2023/09/22 00:21:46;;;;;;;4.40;2.30;;;;;;;17.67;70.26;99249.59;677801;29;1112;-93
2023/09/22 00:22:07;;;;;;;5.43;2.30;;;;;;;17.64;70.30;99242.63;680262;29;1256;-94
2023/09/22 00:22:29;;;;;;;5.30;2.20;;;;;;;17.66;70.43;99247.88;683206;29;1181;-91
2023/09/22 00:22:52;;;;;;;3.60;2.20;;;;;;;17.65;70.24;99252.28;679751;29;1368;-93
2023/09/22 00:23:15;;;;;;;3.63;2.30;;;;;;;17.72;70.23;99258.28;680286;29;1242;-93
2023/09/22 00:23:35;;;;;;;2.95;2.17;;;;;;;17.72;70.46;99257.41;680423;29;1195;-92
2023/09/22 00:23:59;;;;;;;3.05;2.00;;;;;;;17.68;70.14;99254.84;685498;28;1231;-92
2023/09/22 00:24:20;;;;;;;3.10;2.00;;;;;;;17.75;70.24;99263.47;680852;28;1392;-93
2023/09/22 00:24:40;;;;;;;3.25;2.08;;;;;;;17.77;70.01;99255.53;682766;29;1091;-93
2023/09/22 00:25:02;;;;;;;3.70;2.15;;;;;;;17.73;69.96;99259.13;682656;28;1332;-93
2023/09/22 00:25:23;;;;;;;4.28;2.30;;;;;;;17.72;70.06;99253.00;682835;28;1414;-93
2023/09/22 00:25:44;;;;;;;4.13;2.10;;;;;;;17.70;69.91;99253.94;685796;28;1130;-93
2023/09/22 00:26:05;;;;;;;3.30;1.90;;;;;;;17.69;70.00;99253.06;685471;28;1145;-94
2023/09/22 00:26:26;;;;;;;2.45;1.75;;;;;;;17.67;70.00;99254.88;682883;28;1282;-92
2023/09/22 00:26:47;;;;;;;4.03;2.05;;;;;;;17.70;70.04;99249.53;683068;28;1134;-93
2023/09/22 00:27:08;;;;;;;4.10;2.10;;;;;;;17.67;70.03;99249.59;682275;29;1395;-93
2023/09/22 00:27:30;;;;;;;3.63;2.20;;;;;;;17.67;70.06;99246.97;685656;28;1226;-93
2023/09/22 00:27:51;;;;;;;2.60;2.00;;;;;;;17.64;70.14;99247.06;685385;28;1209;-93
2023/09/22 00:28:11;;;;;;;3.60;2.10;;;;;;;17.69;69.98;99247.78;680316;29;1241;-93
2023/09/22 00:28:35;;;;;;;3.00;1.73;;;;;;;17.67;70.26;99250.50;682634;29;1347;-93
2023/09/22 00:28:57;;;;;;;3.10;1.80;;;;;;;17.74;70.00;99258.22;680219;29;1200;-92
2023/09/22 00:29:23;;;;;;;2.65;1.95;;;;;;;17.70;70.11;99257.44;680263;29;1222;-92
2023/09/22 00:29:44;;;;;;;3.10;2.13;;;;;;;17.71;69.97;99260.94;682964;29;1209;-91
2023/09/22 00:30:08;;;;;;;5.95;2.10;;;;;;;17.72;69.88;99266.19;680282;29;1290;-93
2023/09/22 00:30:30;;;;;;;5.80;2.20;;;;;;;17.71;69.91;99261.84;680328;29;1284;-93
2023/09/22 00:30:51;;;;;;;3.05;2.10;;;;;;;17.71;69.93;99256.56;682435;28;1336;-91
2023/09/22 00:31:12;;;;;;;2.65;1.90;;;;;;;17.65;69.93;99251.44;680275;29;1217;-93
2023/09/22 00:31:32;;;;;;;3.45;1.90;;;;;;;17.71;70.01;99264.47;684995;28;1200;-91
2023/09/22 00:31:53;;;;;;;3.15;1.88;;;;;;;17.70;70.16;99261.84;680928;29;1204;-92
2023/09/22 00:32:22;;;;;;;3.60;1.93;;;;;;;17.71;69.96;99271.50;680064;29;1225;-93
2023/09/22 00:32:43;;;;;;;3.53;2.10;;;;;;;17.67;69.99;99261.03;675185;29;1379;-93
2023/09/22 00:33:04;;;;;;;3.85;2.15;;;;;;;17.68;70.08;99264.53;676734;29;1282;-93
2023/09/22 00:33:25;;;;;;;3.22;2.00;;;;;;;17.76;70.12;99278.38;682500;28;1213;-93
2023/09/22 00:33:46;;;;;;;3.15;2.10;;;;;;;17.73;70.12;99267.91;679319;29;1346;-93
2023/09/22 00:34:08;;;;;;;3.05;1.92;;;;;;;17.74;70.10;99277.56;680543;29;1189;-93
2023/09/22 00:34:28;;;;;;;2.65;1.80;;;;;;;17.78;69.84;99278.34;682825;28;1396;-92
2023/09/22 00:34:49;;;;;;;2.97;1.90;;;;;;;17.79;69.93;99283.59;680056;29;1196;-93
2023/09/22 00:35:14;;;;;;;3.00;1.98;;;;;;;17.74;69.97;99276.69;681865;28;1204;-93
2023/09/22 00:35:35;;;;;;;4.47;2.45;;;;;;;17.75;70.16;99279.28;683092;28;1417;-93
2023/09/22 00:36:02;;;;;;;4.18;2.30;;;;;;;17.71;70.00;99275.03;677547;29;1159;-93
2023/09/22 00:36:25;;;;;;;4.03;2.20;;;;;;;17.79;70.13;99286.25;682387;29;1226;-93
2023/09/22 00:36:48;;;;;;;5.63;1.98;;;;;;;17.72;69.73;99284.66;685482;28;1262;-92
2023/09/22 00:37:10;;;;;;;6.78;2.00;;;;;;;17.63;70.15;99272.56;677785;29;1287;-93
2023/09/22 00:37:30;;;;;;;3.90;2.00;;;;;;;17.65;70.14;99277.81;677794;29;1329;-92
2023/09/22 00:37:53;;;;;;;3.10;1.90;;;;;;;17.69;70.15;99282.09;680559;29;1209;-90
2023/09/22 00:38:14;;;;;;;2.55;1.80;;;;;;;17.74;70.29;99292.50;674910;29;1125;-94
2023/09/22 00:38:37;;;;;;;2.80;1.90;;;;;;;17.68;70.26;99285.63;680251;29;1284;-93
2023/09/22 00:38:58;;;;;;;2.73;1.80;;;;;;;17.72;70.32;99289.94;685296;28;1155;-93
2023/09/22 00:39:19;;;;;;;2.40;1.80;;;;;;;17.63;70.39;99274.31;677628;28;1178;-92
2023/09/22 00:39:40;;;;;;;2.55;1.80;;;;;;;17.64;70.39;99276.06;680213;29;1265;-92
2023/09/22 00:40:01;;;;;;;3.47;1.95;;;;;;;17.63;70.09;99274.31;680322;29;1303;-93
2023/09/22 00:40:22;;;;;;;3.30;1.90;;;;;;;17.62;70.29;99273.47;682767;28;1300;-94
2023/09/22 00:40:43;;;;;;;3.63;1.83;;;;;;;17.66;70.19;99279.53;677741;29;1396;-92
2023/09/22 00:41:04;;;;;;;3.20;1.80;;;;;;;17.66;70.27;99282.19;677462;29;1241;-93
2023/09/22 00:41:25;;;;;;;2.97;1.90;;;;;;;17.71;70.19;99292.59;682691;28;1354;-91
2023/09/22 00:41:46;;;;;;;3.30;1.90;;;;;;;17.69;70.17;99284.72;684697;28;1413;-92
2023/09/22 00:42:09;;;;;;;3.22;1.80;;;;;;;17.68;70.23;99283.88;682637;28;1296;-92
2023/09/22 00:42:30;;;;;;;3.00;1.85;;;;;;;17.70;70.22;99285.59;677571;29;1205;-92
2023/09/22 00:43:12;;;;;;;2.90;1.90;;;;;;;17.67;70.19;99281.25;682623;29;1157;-93
2023/09/22 00:43:33;;;;;;;2.53;1.55;;;;;;;17.68;70.40;99283.00;682955;29;1377;-92
2023/09/22 00:43:54;;;;;;;2.50;1.70;;;;;;;17.69;70.34;99290.00;683893;28;1266;-92
2023/09/22 00:44:15;;;;;;;2.85;2.05;;;;;;;17.70;70.38;99291.72;685428;28;1276;-92
2023/09/22 00:44:36;;;;;;;3.63;2.20;;;;;;;17.73;70.28;99291.66;685499;28;1218;-92
2023/09/22 00:44:58;;;;;;;3.90;2.10;;;;;;;17.67;70.26;99281.25;677318;29;1438;-93
2023/09/22 00:45:21;;;;;;;3.03;1.70;;;;;;;17.72;70.19;99284.66;682836;28;1270;-91
2023/09/22 00:45:45;;;;;;;2.70;1.70;;;;;;;17.69;70.11;99274.16;680266;29;1391;-92
2023/09/22 00:46:06;;;;;;;2.40;1.60;;;;;;;17.72;70.26;99284.66;680059;29;1214;-93
2023/09/22 00:46:28;;;;;;;2.28;1.40;;;;;;;17.69;70.31;99282.09;685509;28;1285;-92
2023/09/22 00:46:49;;;;;;;1.73;1.40;;;;;;;17.71;70.42;99287.34;680607;28;1349;-93
2023/09/22 00:47:12;;;;;;;2.00;1.65;;;;;;;17.73;70.41;99285.50;684845;28;1376;-91
2023/09/22 00:47:33;;;;;;;2.40;1.70;;;;;;;17.70;70.28;99280.31;685178;28;1410;-92
2023/09/22 00:47:53;;;;;;;2.72;1.80;;;;;;;17.78;69.98;99289.75;682096;28;1650;-93
2023/09/22 00:48:22;;;;;;;2.63;1.70;;;;;;;17.77;69.88;99282.75;682826;28;1207;-91
2023/09/22 00:48:43;;;;;;;2.60;2.08;;;;;;;17.77;69.75;99288.03;679005;29;1223;-93
2023/09/22 00:49:06;;;;;;;3.00;2.00;;;;;;;17.78;70.02;99284.47;677221;29;1120;-92
2023/09/22 00:49:31;;;;;;;3.20;1.88;;;;;;;17.81;69.73;99289.69;682687;28;1135;-94
2023/09/22 00:49:53;;;;;;;3.33;1.70;;;;;;;17.77;69.75;99287.19;679872;29;1415;-93
2023/09/22 00:50:14;;;;;;;2.75;1.75;;;;;;;17.79;69.94;99282.72;680187;29;1124;-92
2023/09/22 00:50:37;;;;;;;2.97;1.90;;;;;;;17.78;69.84;99284.47;682785;28;1332;-91
2023/09/22 00:51:01;;;;;;;2.40;1.70;;;;;;;17.81;69.91;99288.81;679711;29;1342;-93
2023/09/22 00:51:21;;;;;;;2.28;1.70;;;;;;;17.85;69.68;99289.59;681712;29;1324;-93
2023/09/22 00:51:42;;;;;;;2.70;1.80;;;;;;;17.84;69.77;99290.50;677767;29;1226;-93
2023/09/22 00:52:03;;;;;;;3.20;1.80;;;;;;;17.83;69.77;99296.69;680145;29;1165;-93
2023/09/22 00:52:25;;;;;;;4.20;1.90;;;;;;;17.84;69.67;99291.41;684597;28;1225;-93
2023/09/22 00:52:46;;;;;;;4.07;2.00;;;;;;;17.84;69.67;99295.78;684729;28;1236;-93
2023/09/22 00:53:07;;;;;;;4.50;1.90;;;;;;;17.78;69.73;99295.03;685228;28;1343;-93
2023/09/22 00:53:32;;;;;;;6.00;1.92;;;;;;;17.77;69.73;99285.38;683121;29;1277;-93
2023/09/22 00:53:54;;;;;;;6.10;1.80;;;;;;;17.77;69.85;99282.75;677993;29;1420;-93
2023/09/22 00:54:15;;;;;;;3.60;2.00;;;;;;;17.80;69.67;99287.97;677529;29;1206;-93
2023/09/22 00:54:36;;;;;;;3.55;2.00;;;;;;;17.79;69.72;99291.50;679609;29;1301;-92
2023/09/22 00:54:58;;;;;;;3.40;2.05;;;;;;;17.83;69.51;99301.97;677414;29;1628;-92
2023/09/22 00:55:19;;;;;;;2.63;1.85;;;;;;;17.74;69.64;99288.13;682686;28;1209;-91
2023/09/22 00:55:40;;;;;;;3.13;1.80;;;;;;;17.80;69.58;99298.53;680131;29;1154;-93
2023/09/22 00:56:02;;;;;;;3.20;1.80;;;;;;;17.80;69.50;99300.28;679374;29;1491;-93
2023/09/22 00:56:24;;;;;;;2.55;1.70;;;;;;;17.82;69.53;99309.00;680087;29;1159;-93
2023/09/22 00:56:46;;;;;;;2.35;1.70;;;;;;;17.78;69.51;99297.66;685121;28;1385;-92
2023/09/22 00:57:07;;;;;;;2.63;1.80;;;;;;;17.81;69.73;99304.66;684270;28;1444;-93
2023/09/22 00:57:28;;;;;;;3.15;1.90;;;;;;;17.78;69.48;99305.59;681895;28;1466;-92
2023/09/22 00:57:51;;;;;;;3.58;2.08;;;;;;;17.75;69.50;99300.41;687610;28;1419;-92
2023/09/22 00:58:12;;;;;;;4.47;1.98;;;;;;;17.77;69.59;99301.22;685218;28;1219;-93
2023/09/22 00:58:34;;;;;;;3.88;1.90;;;;;;;17.77;69.63;99303.84;682349;29;1155;-92
2023/09/22 00:58:55;;;;;;;2.67;1.80;;;;;;;17.70;69.55;99298.78;687736;28;1232;-92
2023/09/22 00:59:17;;;;;;;2.40;1.88;;;;;;;17.77;69.53;99303.00;681543;28;1911;-93
2023/09/22 00:59:40;;;;;;;2.60;2.03;;;;;;;17.76;69.67;99302.13;680400;29;1310;-93
2023/09/22 01:00:01;;;;;;;2.50;1.95;;;;;;;17.78;69.51;99308.22;679605;29;1190;-91
2023/09/22 01:00:22;;;;;;;2.47;1.90;;;;;;;17.78;69.55;99307.38;685034;28;1337;-91
2023/09/22 01:00:49;;;;;;;2.30;1.73;;;;;;;17.77;69.87;99300.38;687577;28;1227;-90
2023/09/22 01:01:11;;;;;;;3.10;1.90;;;;;;;17.74;69.70;99305.72;685402;28;1271;-94
2023/09/22 01:01:31;;;;;;;3.50;2.20;;;;;;;17.78;69.87;99308.22;680333;29;1127;-92
2023/09/22 01:01:54;;;;;;;2.90;2.00;;;;;;;17.78;69.76;99310.88;677093;29;1282;-92
2023/09/22 01:02:15;;;;;;;2.25;1.85;;;;;;;17.78;69.79;99305.59;680039;29;1197;-92
2023/09/22 01:02:36;;;;;;;2.30;1.80;;;;;;;17.78;69.62;99304.75;680181;29;1300;-93
2023/09/22 01:03:01;;;;;;;2.53;1.80;;;;;;;17.83;69.65;99304.63;679815;29;1130;-93
2023/09/22 01:03:23;;;;;;;2.80;1.85;;;;;;;17.85;69.78;99316.00;679483;29;1393;-92
2023/09/22 01:03:45;;;;;;;2.50;1.77;;;;;;;17.78;69.75;99302.09;676905;29;1689;-91
2023/09/22 01:04:06;;;;;;;2.33;1.75;;;;;;;17.85;69.58;99316.00;680075;29;1157;-94
2023/09/22 01:04:28;;;;;;;2.92;1.90;;;;;;;17.83;69.64;99307.25;682809;29;1198;-91
2023/09/22 01:04:48;;;;;;;4.00;1.80;;;;;;;17.85;69.61;99310.72;688086;28;1233;-90
2023/09/22 01:05:09;;;;;;;4.18;1.83;;;;;;;17.81;69.70;99304.66;684674;28;1263;-92
2023/09/22 01:05:33;;;;;;;4.05;1.90;;;;;;;17.81;69.62;99302.00;685341;28;1412;-91
2023/09/22 01:05:55;;;;;;;3.38;2.00;;;;;;;17.87;69.76;99308.88;682444;28;1289;-92
2023/09/22 01:06:15;;;;;;;3.20;2.00;;;;;;;17.86;69.71;99307.16;679925;29;1212;-93
2023/09/22 01:06:38;;;;;;;2.80;1.80;;;;;;;17.81;69.79;99292.34;680154;29;1175;-93
2023/09/22 01:07:00;;;;;;;2.70;1.90;;;;;;;17.88;69.83;99310.66;679202;29;1222;-92
2023/09/22 01:07:21;;;;;;;3.13;2.10;;;;;;;17.91;69.80;99305.28;682462;28;1266;-92
2023/09/22 01:07:42;;;;;;;5.10;2.22;;;;;;;17.89;69.78;99307.94;687770;28;1202;-92
2023/09/22 01:08:03;;;;;;;5.00;2.17;;;;;;;17.87;69.67;99304.50;684893;28;1259;-92
2023/09/22 01:08:23;;;;;;;5.20;2.05;;;;;;;17.88;69.66;99305.38;685209;28;1189;-91
2023/09/22 01:08:44;;;;;;;3.20;1.90;;;;;;;17.90;69.91;99307.03;685612;28;1275;-90
2023/09/22 01:09:09;;;;;;;3.30;1.90;;;;;;;17.86;69.59;99299.25;688032;28;1190;-93
2023/09/22 01:09:29;;;;;;;3.38;1.95;;;;;;;17.89;69.74;99291.28;677496;29;1264;-89
2023/09/22 01:09:50;;;;;;;4.70;2.05;;;;;;;17.91;69.57;99303.53;678068;29;1373;-90
2023/09/22 01:10:13;;;;;;;4.55;2.00;;;;;;;17.91;69.70;99300.88;680284;29;1090;-91
2023/09/22 01:10:37;;;;;;;4.28;1.85;;;;;;;17.96;69.46;99300.75;680131;29;1333;-92
2023/09/22 01:11:02;;;;;;;3.20;1.90;;;;;;;17.99;69.49;99300.66;681779;29;1285;-90
2023/09/22 01:11:25;;;;;;;3.78;2.13;;;;;;;18.00;69.52;99298.91;682162;29;1382;-93
2023/09/22 01:11:46;;;;;;;3.13;2.13;;;;;;;18.00;69.59;99293.63;677016;29;1381;-90
2023/09/22 01:12:08;;;;;;;3.30;2.10;;;;;;;18.04;69.38;99293.50;677165;29;1202;-91
2023/09/22 01:12:28;;;;;;;2.80;2.20;;;;;;;18.01;69.43;99296.22;682703;29;1254;-90
2023/09/22 01:12:51;;;;;;;3.05;2.28;;;;;;;18.01;69.28;99298.84;685267;28;1120;-89
2023/09/22 01:13:11;;;;;;;2.92;2.22;;;;;;;18.02;69.49;99295.28;682715;29;1192;-91
2023/09/22 01:13:32;;;;;;;2.63;1.95;;;;;;;18.05;69.26;99303.16;682625;29;1245;-92
2023/09/22 01:13:53;;;;;;;2.30;1.73;;;;;;;18.04;69.38;99296.16;682017;29;1315;-93
2023/09/22 01:14:13;;;;;;;2.27;1.80;;;;;;;18.06;69.45;99304.88;687872;28;1311;-93
2023/09/22 01:14:34;;;;;;;3.65;1.95;;;;;;;18.05;69.23;99307.56;682995;29;1211;-93
2023/09/22 01:14:55;;;;;;;4.72;2.10;;;;;;;18.08;69.20;99303.06;681517;28;1275;-91
2023/09/22 01:15:19;;;;;;;5.07;2.20;;;;;;;18.01;69.26;99309.41;686735;28;1212;-90
2023/09/22 01:15:41;;;;;;;2.67;2.08;;;;;;;18.12;69.29;99306.47;682303;29;1305;-89
2023/09/22 01:16:02;;;;;;;2.60;1.92;;;;;;;18.09;69.31;99304.78;681541;29;1210;-89
2023/09/22 01:16:23;;;;;;;2.72;2.00;;;;;;;18.10;69.41;99295.13;679869;29;1284;-87
2023/09/22 01:16:45;;;;;;;2.60;1.80;;;;;;;18.14;68.95;99302.06;682030;29;1283;-88
2023/09/22 01:17:07;;;;;;;2.42;1.90;;;;;;;18.13;69.16;99307.38;677161;29;1381;-92
2023/09/22 01:17:28;;;;;;;2.95;2.00;;;;;;;18.11;69.18;99294.19;684893;28;1214;-87
2023/09/22 01:17:53;;;;;;;4.50;2.58;;;;;;;18.14;68.92;99311.72;680545;29;1102;-87
2023/09/22 01:18:14;;;;;;;5.90;2.50;;;;;;;18.13;69.15;99307.38;679769;29;1240;-90
2023/09/22 01:18:37;;;;;;;4.95;2.35;;;;;;;18.14;69.10;99301.19;688306;28;1276;-92
2023/09/22 01:18:58;;;;;;;4.90;2.20;;;;;;;18.18;69.18;99314.28;682308;28;1338;-89
2023/09/22 01:19:20;;;;;;;3.30;2.00;;;;;;;18.20;68.90;99322.16;685112;28;2102;-91
2023/09/22 01:19:42;;;;;;;3.83;2.20;;;;;;;18.20;69.11;99311.59;682548;29;1062;-89
2023/09/22 01:20:08;;;;;;;3.22;2.08;;;;;;;18.20;69.01;99307.19;687801;28;1397;-90
2023/09/22 01:20:30;;;;;;;2.90;2.00;;;;;;;18.24;68.78;99313.25;679904;29;1130;-89
2023/09/22 01:20:51;;;;;;;3.25;2.08;;;;;;;18.11;68.98;99304.75;682541;29;1501;-90
2023/09/22 01:21:12;;;;;;;3.65;2.10;;;;;;;18.15;68.69;99317.00;682866;29;1201;-91
2023/09/22 01:21:36;;;;;;;3.60;2.10;;;;;;;18.21;68.56;99313.34;680060;28;1371;-90
2023/09/22 01:21:57;;;;;;;3.00;2.00;;;;;;;18.15;68.68;99313.50;679667;29;1238;-89
2023/09/22 01:22:18;;;;;;;2.80;2.00;;;;;;;18.17;68.60;99311.66;685294;28;1198;-89
2023/09/22 01:22:38;;;;;;;3.00;2.00;;;;;;;18.25;68.60;99328.16;682212;29;1296;-86
2023/09/22 01:22:59;;;;;;;3.10;2.10;;;;;;;18.17;68.41;99312.56;679764;29;1286;-91
2023/09/22 01:23:19;;;;;;;3.00;2.20;;;;;;;18.22;68.41;99313.28;679628;29;1135;-87
2023/09/22 01:23:41;;;;;;;3.10;2.28;;;;;;;18.30;68.35;99322.75;680379;29;1281;-93
2023/09/22 01:24:04;;;;;;;2.80;2.13;;;;;;;18.28;68.15;99320.19;684560;28;1300;-87
2023/09/22 01:24:25;;;;;;;2.90;2.10;;;;;;;18.25;67.84;99316.75;682522;29;954;-91
2023/09/22 01:24:46;;;;;;;2.58;2.10;;;;;;;18.22;68.02;99309.78;682540;28;1209;-89
2023/09/22 01:25:07;;;;;;;3.05;2.30;;;;;;;18.18;68.09;99318.69;682618;28;1176;-89
2023/09/22 01:25:28;;;;;;;2.92;2.20;;;;;;;18.18;68.01;99330.13;677512;29;1220;-91
2023/09/22 01:25:48;;;;;;;3.08;2.10;;;;;;;18.23;67.95;99322.06;683066;28;1176;-91
2023/09/22 01:26:09;;;;;;;2.40;1.93;;;;;;;18.21;67.78;99324.75;682096;29;1495;-88
2023/09/22 01:26:30;;;;;;;2.92;2.20;;;;;;;18.27;67.80;99329.00;682640;29;1307;-91
2023/09/22 01:26:53;;;;;;;2.90;2.20;;;;;;;18.26;67.68;99321.13;676473;29;1191;-91
2023/09/22 01:27:14;;;;;;;4.20;2.22;;;;;;;18.24;67.68;99323.81;677323;29;1322;-90
2023/09/22 01:27:35;;;;;;;4.00;2.30;;;;;;;18.21;67.51;99315.97;682885;29;1360;-91
2023/09/22 01:27:57;;;;;;;4.07;2.35;;;;;;;18.20;67.49;99322.16;681874;29;1374;-88
2023/09/22 01:28:21;;;;;;;3.20;2.30;;;;;;;18.18;67.41;99330.13;682766;29;1287;-90
2023/09/22 01:28:44;;;;;;;3.20;2.30;;;;;;;18.23;67.52;99322.06;682902;29;1479;-91
2023/09/22 01:29:06;;;;;;;2.97;2.33;;;;;;;18.17;67.46;99322.22;682732;28;1295;-93
2023/09/22 01:29:29;;;;;;;3.45;2.38;;;;;;;18.21;67.26;99326.53;682609;29;1325;-92
2023/09/22 01:29:51;;;;;;;2.90;2.10;;;;;;;18.17;67.17;99316.94;687928;28;1317;-92
2023/09/22 01:30:14;;;;;;;3.53;2.25;;;;;;;18.26;66.78;99326.41;690606;28;1373;-90
2023/09/22 01:30:36;;;;;;;3.75;2.22;;;;;;;18.20;66.94;99317.75;683014;28;1245;-89
2023/09/22 01:30:56;;;;;;;6.72;2.30;;;;;;;18.17;66.96;99316.94;683986;28;1256;-88
2023/09/22 01:31:17;;;;;;;7.00;2.30;;;;;;;18.19;66.74;99336.28;685160;28;1144;-92
2023/09/22 01:31:38;;;;;;;6.40;2.40;;;;;;;18.11;66.74;99317.06;688330;28;1038;-92
2023/09/22 01:31:58;;;;;;;2.63;2.20;;;;;;;18.15;66.72;99319.66;680242;28;1142;-93
2023/09/22 01:32:19;;;;;;;2.80;2.13;;;;;;;18.23;66.76;99327.34;682573;28;1217;-87
2023/09/22 01:32:41;;;;;;;3.03;2.20;;;;;;;18.12;66.50;99306.47;685339;28;1084;-87
2023/09/22 01:33:03;;;;;;;3.05;2.10;;;;;;;18.21;66.43;99323.91;681551;29;1134;-89
2023/09/22 01:33:24;;;;;;;3.22;2.22;;;;;;;18.17;66.34;99319.59;677516;29;1229;-87
2023/09/22 01:33:47;;;;;;;3.42;2.17;;;;;;;18.15;66.39;99313.50;679012;29;1263;-89
2023/09/22 01:34:11;;;;;;;6.47;2.30;;;;;;;18.20;66.28;99322.16;679998;29;1307;-93
2023/09/22 01:34:32;;;;;;;8.63;2.70;;;;;;;18.17;66.02;99323.09;682896;29;1371;-90
2023/09/22 01:34:53;;;;;;;8.20;2.70;;;;;;;18.19;66.11;99323.06;677035;29;1092;-92
2023/09/22 01:35:17;;;;;;;4.85;2.38;;;;;;;18.21;65.91;99315.97;682801;29;1411;-92
2023/09/22 01:35:38;;;;;;;6.45;2.40;;;;;;;18.27;66.01;99336.06;685193;28;1316;-86
2023/09/22 01:35:59;;;;;;;6.20;2.30;;;;;;;18.20;65.97;99324.81;679946;29;1273;-92
2023/09/22 01:36:21;;;;;;;5.93;2.38;;;;;;;18.19;66.01;99329.22;679762;29;1261;-94
2023/09/22 01:36:41;;;;;;;2.80;2.30;;;;;;;18.24;65.85;99318.53;682692;28;1220;-91
2023/09/22 01:37:07;;;;;;;4.18;2.50;;;;;;;18.20;65.83;99308.97;674278;29;1193;-88
2023/09/22 01:37:35;;;;;;;4.55;2.58;;;;;;;18.28;65.73;99340.44;677327;29;1345;-89
2023/09/22 01:38:08;;;;;;;3.42;2.50;;;;;;;18.22;65.90;99322.97;679585;29;1024;-90
2023/09/22 01:38:29;;;;;;;3.20;2.38;;;;;;;18.21;65.84;99323.91;680097;29;1312;-89
2023/09/22 01:38:50;;;;;;;3.17;2.33;;;;;;;18.22;65.63;99336.19;679787;29;1171;-89
2023/09/22 01:39:15;;;;;;;3.50;2.40;;;;;;;18.22;65.52;99321.19;679703;29;1920;-87
2023/09/22 01:39:38;;;;;;;3.38;2.50;;;;;;;18.25;65.47;99330.81;680080;29;1399;-88
2023/09/22 01:39:59;;;;;;;3.38;2.30;;;;;;;18.21;65.38;99323.91;682316;29;983;-87
2023/09/22 01:40:22;;;;;;;3.72;2.58;;;;;;;18.14;65.31;99325.81;682912;29;1101;-94
2023/09/22 01:40:43;;;;;;;3.40;2.20;;;;;;;18.22;65.24;99331.75;680250;28;1296;-87
2023/09/22 01:41:04;;;;;;;3.30;2.35;;;;;;;18.17;65.41;99319.59;682110;28;1212;-90
2023/09/22 01:41:26;;;;;;;3.17;2.45;;;;;;;18.18;65.45;99323.97;677587;29;1363;-91
2023/09/22 01:41:47;;;;;;;3.50;2.90;;;;;;;18.17;65.53;99316.94;680053;29;1356;-90
2023/09/22 01:42:08;;;;;;;4.00;2.90;;;;;;;18.14;65.27;99319.66;684435;28;1201;-88
2023/09/22 01:42:30;;;;;;;4.05;2.95;;;;;;;18.16;65.34;99320.50;680145;29;823;-95
2023/09/22 01:42:51;;;;;;;3.90;2.70;;;;;;;18.17;65.29;99333.66;684773;28;1245;-88
2023/09/22 01:43:12;;;;;;;4.00;2.60;;;;;;;18.15;65.09;99324.94;685217;28;1294;-92
2023/09/22 01:43:34;;;;;;;6.00;2.60;;;;;;;18.11;65.17;99306.50;682686;29;1261;-89
2023/09/22 01:43:55;;;;;;;6.13;2.53;;;;;;;18.13;64.99;99312.66;679931;29;1103;-93
2023/09/22 01:44:16;;;;;;;6.30;2.60;;;;;;;18.21;65.34;99329.19;680103;29;1195;-90
2023/09/22 01:44:37;;;;;;;5.72;2.70;;;;;;;18.14;65.12;99324.94;677157;29;1238;-92
2023/09/22 01:44:57;;;;;;;5.77;2.80;;;;;;;18.12;65.40;99326.75;679710;29;1246;-90
2023/09/22 01:45:18;;;;;;;5.60;2.70;;;;;;;18.07;65.38;99311.88;680061;29;1195;-91
2023/09/22 01:45:39;;;;;;;4.70;2.80;;;;;;;18.08;65.36;99308.34;682872;29;1254;-93